sensor_id;sensor_type;location;lat;lon;timestamp;temperature;humidity
34726;DHT22;20951;50.818;4.344;2023-03-19T00:00:37;12.20;99.90
34726;DHT22;20951;50.818;4.344;2023-03-19T00:03:06;12.30;99.90
34726;DHT22;20951;50.818;4.344;2023-03-19T00:05:32;12.40;99.90
34726;DHT22;20951;50.818;4.344;2023-03-19T00:07:57;12.20;99.90
34726;DHT22;20951;50.818;4.344;2023-03-19T00:10:23;12.20;99.90
34726;DHT22;20951;50.818;4.344;2023-03-19T00:12:49;12.20;99.90
34726;DHT22;20951;50.818;4.344;2023-03-19T00:15:15;12.10;99.90
34726;DHT22;20951;50.818;4.344;2023-03-19T00:17:42;12.10;99.90
34726;DHT22;20951;50.818;4.344;2023-03-19T00:20:09;12.10;99.90
34726;DHT22;20951;50.818;4.344;2023-03-19T00:22:35;12.10;99.90
34726;DHT22;20951;50.818;4.344;2023-03-19T00:25:01;12.10;99.90
34726;DHT22;20951;50.818;4.344;2023-03-19T00:27:27;11.90;99.90
34726;DHT22;20951;50.818;4.344;2023-03-19T00:29:55;12.00;99.90
34726;DHT22;20951;50.818;4.344;2023-03-19T00:32:21;12.00;99.90
34726;DHT22;20951;50.818;4.344;2023-03-19T00:34:50;12.10;99.90
34726;DHT22;20951;50.818;4.344;2023-03-19T00:37:18;12.10;99.90
34726;DHT22;20951;50.818;4.344;2023-03-19T00:39:45;12.20;99.90
34726;DHT22;20951;50.818;4.344;2023-03-19T00:42:12;12.10;99.90
34726;DHT22;20951;50.818;4.344;2023-03-19T00:44:40;12.00;99.90
34726;DHT22;20951;50.818;4.344;2023-03-19T00:47:05;12.00;99.90
34726;DHT22;20951;50.818;4.344;2023-03-19T00:49:32;12.00;99.90
34726;DHT22;20951;50.818;4.344;2023-03-19T00:51:59;12.00;99.90
34726;DHT22;20951;50.818;4.344;2023-03-19T00:54:27;11.90;99.90
34726;DHT22;20951;50.818;4.344;2023-03-19T00:56:54;12.00;99.90
34726;DHT22;20951;50.818;4.344;2023-03-19T00:59:22;12.10;99.90
34726;DHT22;20951;50.818;4.344;2023-03-19T01:01:50;12.20;99.90
34726;DHT22;20951;50.818;4.344;2023-03-19T01:04:16;12.20;99.90
34726;DHT22;20951;50.818;4.344;2023-03-19T01:06:46;12.20;99.90
34726;DHT22;20951;50.818;4.344;2023-03-19T01:09:15;12.20;99.90
34726;DHT22;20951;50.818;4.344;2023-03-19T01:11:41;12.10;99.90
34726;DHT22;20951;50.818;4.344;2023-03-19T01:14:06;12.10;99.90
34726;DHT22;20951;50.818;4.344;2023-03-19T01:16:33;12.10;99.90
34726;DHT22;20951;50.818;4.344;2023-03-19T01:19:01;12.10;99.90
34726;DHT22;20951;50.818;4.344;2023-03-19T01:21:28;12.20;99.90
34726;DHT22;20951;50.818;4.344;2023-03-19T01:24:01;12.10;99.90
34726;DHT22;20951;50.818;4.344;2023-03-19T01:26:32;12.00;99.90
34726;DHT22;20951;50.818;4.344;2023-03-19T01:28:58;12.20;99.90
34726;DHT22;20951;50.818;4.344;2023-03-19T01:31:24;12.10;99.90
34726;DHT22;20951;50.818;4.344;2023-03-19T01:33:51;12.20;99.90
34726;DHT22;20951;50.818;4.344;2023-03-19T01:36:17;12.10;99.90
34726;DHT22;20951;50.818;4.344;2023-03-19T01:38:44;12.10;99.90
34726;DHT22;20951;50.818;4.344;2023-03-19T01:41:11;12.00;99.90
34726;DHT22;20951;50.818;4.344;2023-03-19T01:43:38;12.00;99.90
34726;DHT22;20951;50.818;4.344;2023-03-19T01:46:27;12.00;99.90
34726;DHT22;20951;50.818;4.344;2023-03-19T01:49:04;12.10;99.90
34726;DHT22;20951;50.818;4.344;2023-03-19T01:51:35;11.90;99.90
34726;DHT22;20951;50.818;4.344;2023-03-19T01:54:05;12.10;99.90
34726;DHT22;20951;50.818;4.344;2023-03-19T01:56:37;12.20;99.90
34726;DHT22;20951;50.818;4.344;2023-03-19T01:59:26;12.20;99.90
34726;DHT22;20951;50.818;4.344;2023-03-19T02:01:59;12.20;99.90
34726;DHT22;20951;50.818;4.344;2023-03-19T02:04:26;12.20;99.90
34726;DHT22;20951;50.818;4.344;2023-03-19T02:06:57;12.20;99.90
34726;DHT22;20951;50.818;4.344;2023-03-19T02:09:25;12.30;99.90
34726;DHT22;20951;50.818;4.344;2023-03-19T02:11:54;12.30;99.90
34726;DHT22;20951;50.818;4.344;2023-03-19T02:14:21;12.20;99.90
34726;DHT22;20951;50.818;4.344;2023-03-19T02:16:47;12.10;99.90
34726;DHT22;20951;50.818;4.344;2023-03-19T02:22:04;12.10;99.90
34726;DHT22;20951;50.818;4.344;2023-03-19T02:24:36;12.10;99.90
34726;DHT22;20951;50.818;4.344;2023-03-19T02:27:06;12.10;99.90
34726;DHT22;20951;50.818;4.344;2023-03-19T02:29:34;12.00;99.90
34726;DHT22;20951;50.818;4.344;2023-03-19T02:32:00;12.10;99.90
34726;DHT22;20951;50.818;4.344;2023-03-19T02:34:40;12.00;99.90
34726;DHT22;20951;50.818;4.344;2023-03-19T02:37:13;12.10;99.90
34726;DHT22;20951;50.818;4.344;2023-03-19T02:39:47;12.10;99.90
34726;DHT22;20951;50.818;4.344;2023-03-19T02:42:18;12.20;99.90
34726;DHT22;20951;50.818;4.344;2023-03-19T02:44:46;12.20;99.90
34726;DHT22;20951;50.818;4.344;2023-03-19T02:47:14;12.10;99.90
34726;DHT22;20951;50.818;4.344;2023-03-19T02:49:40;12.20;99.90
34726;DHT22;20951;50.818;4.344;2023-03-19T02:52:06;12.30;99.90
34726;DHT22;20951;50.818;4.344;2023-03-19T02:54:32;12.40;99.90
34726;DHT22;20951;50.818;4.344;2023-03-19T02:56:58;12.40;99.90
34726;DHT22;20951;50.818;4.344;2023-03-19T02:59:24;12.40;99.90
34726;DHT22;20951;50.818;4.344;2023-03-19T03:01:50;12.50;99.90
34726;DHT22;20951;50.818;4.344;2023-03-19T03:04:17;12.50;99.90
34726;DHT22;20951;50.818;4.344;2023-03-19T03:06:44;12.50;99.90
34726;DHT22;20951;50.818;4.344;2023-03-19T03:09:12;12.40;99.90
34726;DHT22;20951;50.818;4.344;2023-03-19T03:11:39;12.50;99.90
34726;DHT22;20951;50.818;4.344;2023-03-19T03:14:08;12.40;99.90
34726;DHT22;20951;50.818;4.344;2023-03-19T03:16:34;12.40;99.90
34726;DHT22;20951;50.818;4.344;2023-03-19T03:19:00;12.40;99.90
34726;DHT22;20951;50.818;4.344;2023-03-19T03:21:26;12.40;99.90
34726;DHT22;20951;50.818;4.344;2023-03-19T03:23:52;12.40;99.90
34726;DHT22;20951;50.818;4.344;2023-03-19T03:26:20;12.30;99.90
34726;DHT22;20951;50.818;4.344;2023-03-19T03:28:46;12.20;99.90
34726;DHT22;20951;50.818;4.344;2023-03-19T03:31:12;12.20;99.90
34726;DHT22;20951;50.818;4.344;2023-03-19T03:33:39;12.10;99.90
34726;DHT22;20951;50.818;4.344;2023-03-19T03:36:05;12.10;99.90
34726;DHT22;20951;50.818;4.344;2023-03-19T03:38:31;12.10;99.90
34726;DHT22;20951;50.818;4.344;2023-03-19T03:40:58;12.10;99.90
34726;DHT22;20951;50.818;4.344;2023-03-19T03:43:24;12.20;99.90
34726;DHT22;20951;50.818;4.344;2023-03-19T03:45:52;12.10;99.90
34726;DHT22;20951;50.818;4.344;2023-03-19T03:48:19;12.10;99.90
34726;DHT22;20951;50.818;4.344;2023-03-19T03:50:44;12.10;99.90
34726;DHT22;20951;50.818;4.344;2023-03-19T03:53:11;12.00;99.90
34726;DHT22;20951;50.818;4.344;2023-03-19T03:55:37;11.80;99.90
34726;DHT22;20951;50.818;4.344;2023-03-19T03:58:03;11.80;99.90
34726;DHT22;20951;50.818;4.344;2023-03-19T04:00:30;11.70;99.90
34726;DHT22;20951;50.818;4.344;2023-03-19T04:02:56;11.60;99.90
34726;DHT22;20951;50.818;4.344;2023-03-19T04:05:23;11.70;99.90
34726;DHT22;20951;50.818;4.344;2023-03-19T04:07:50;11.60;99.90
34726;DHT22;20951;50.818;4.344;2023-03-19T04:10:16;11.50;99.90
34726;DHT22;20951;50.818;4.344;2023-03-19T04:12:42;11.50;99.90
34726;DHT22;20951;50.818;4.344;2023-03-19T04:15:11;11.40;99.90
34726;DHT22;20951;50.818;4.344;2023-03-19T04:17:38;11.40;99.90
34726;DHT22;20951;50.818;4.344;2023-03-19T04:20:05;11.40;99.90
34726;DHT22;20951;50.818;4.344;2023-03-19T04:22:33;11.40;99.90
34726;DHT22;20951;50.818;4.344;2023-03-19T04:24:59;11.50;99.90
34726;DHT22;20951;50.818;4.344;2023-03-19T04:27:26;11.60;99.90
34726;DHT22;20951;50.818;4.344;2023-03-19T04:29:52;11.50;99.90
34726;DHT22;20951;50.818;4.344;2023-03-19T04:32:18;11.50;99.90
34726;DHT22;20951;50.818;4.344;2023-03-19T04:34:43;11.40;99.90
34726;DHT22;20951;50.818;4.344;2023-03-19T04:37:09;11.30;99.90
34726;DHT22;20951;50.818;4.344;2023-03-19T04:39:39;11.30;99.90
34726;DHT22;20951;50.818;4.344;2023-03-19T04:42:05;11.30;99.90
34726;DHT22;20951;50.818;4.344;2023-03-19T04:44:30;11.20;99.90
34726;DHT22;20951;50.818;4.344;2023-03-19T04:46:57;11.20;99.90
34726;DHT22;20951;50.818;4.344;2023-03-19T04:49:23;11.10;99.90
34726;DHT22;20951;50.818;4.344;2023-03-19T04:51:51;11.10;99.90
34726;DHT22;20951;50.818;4.344;2023-03-19T04:54:20;11.00;99.90
34726;DHT22;20951;50.818;4.344;2023-03-19T04:56:46;11.10;99.90
34726;DHT22;20951;50.818;4.344;2023-03-19T04:59:12;10.90;99.90
34726;DHT22;20951;50.818;4.344;2023-03-19T05:01:47;10.80;99.90
34726;DHT22;20951;50.818;4.344;2023-03-19T05:04:17;10.90;99.90
34726;DHT22;20951;50.818;4.344;2023-03-19T05:06:43;10.80;99.90
34726;DHT22;20951;50.818;4.344;2023-03-19T05:09:09;10.70;99.90
34726;DHT22;20951;50.818;4.344;2023-03-19T05:11:35;10.70;99.90
34726;DHT22;20951;50.818;4.344;2023-03-19T05:14:09;10.80;99.90
34726;DHT22;20951;50.818;4.344;2023-03-19T05:16:35;10.80;99.90
34726;DHT22;20951;50.818;4.344;2023-03-19T05:19:00;10.70;99.90
34726;DHT22;20951;50.818;4.344;2023-03-19T05:21:26;10.60;99.90
34726;DHT22;20951;50.818;4.344;2023-03-19T05:23:52;10.50;99.90
34726;DHT22;20951;50.818;4.344;2023-03-19T05:26:19;10.50;99.90
34726;DHT22;20951;50.818;4.344;2023-03-19T05:28:46;10.60;99.90
34726;DHT22;20951;50.818;4.344;2023-03-19T05:31:13;10.60;99.90
34726;DHT22;20951;50.818;4.344;2023-03-19T05:33:39;10.60;99.90
34726;DHT22;20951;50.818;4.344;2023-03-19T05:36:06;10.50;99.90
34726;DHT22;20951;50.818;4.344;2023-03-19T05:38:35;10.40;99.90
34726;DHT22;20951;50.818;4.344;2023-03-19T05:41:05;10.40;99.90
34726;DHT22;20951;50.818;4.344;2023-03-19T05:43:31;10.40;99.90
34726;DHT22;20951;50.818;4.344;2023-03-19T05:45:58;10.30;99.90
34726;DHT22;20951;50.818;4.344;2023-03-19T05:48:26;10.30;99.90
34726;DHT22;20951;50.818;4.344;2023-03-19T05:50:52;10.40;99.90
34726;DHT22;20951;50.818;4.344;2023-03-19T05:53:19;10.50;99.90
34726;DHT22;20951;50.818;4.344;2023-03-19T05:55:46;10.50;99.90
34726;DHT22;20951;50.818;4.344;2023-03-19T05:58:15;10.50;99.90
34726;DHT22;20951;50.818;4.344;2023-03-19T06:00:41;10.30;99.90
34726;DHT22;20951;50.818;4.344;2023-03-19T06:03:10;10.30;99.90
34726;DHT22;20951;50.818;4.344;2023-03-19T06:05:39;10.30;99.90
34726;DHT22;20951;50.818;4.344;2023-03-19T06:08:05;10.30;99.90
34726;DHT22;20951;50.818;4.344;2023-03-19T06:10:33;10.30;99.90
34726;DHT22;20951;50.818;4.344;2023-03-19T06:13:05;10.50;99.90
34726;DHT22;20951;50.818;4.344;2023-03-19T06:15:31;10.50;99.90
34726;DHT22;20951;50.818;4.344;2023-03-19T06:17:57;10.40;99.90
34726;DHT22;20951;50.818;4.344;2023-03-19T06:20:25;10.40;99.90
34726;DHT22;20951;50.818;4.344;2023-03-19T06:22:52;10.40;99.90
34726;DHT22;20951;50.818;4.344;2023-03-19T06:25:18;10.40;99.90
34726;DHT22;20951;50.818;4.344;2023-03-19T06:27:44;10.30;99.90
34726;DHT22;20951;50.818;4.344;2023-03-19T06:30:11;10.30;99.90
34726;DHT22;20951;50.818;4.344;2023-03-19T06:32:37;10.30;99.90
34726;DHT22;20951;50.818;4.344;2023-03-19T06:35:04;10.20;99.90
34726;DHT22;20951;50.818;4.344;2023-03-19T06:37:31;10.10;99.90
34726;DHT22;20951;50.818;4.344;2023-03-19T06:40:11;10.20;99.90
34726;DHT22;20951;50.818;4.344;2023-03-19T06:42:46;10.20;99.90
34726;DHT22;20951;50.818;4.344;2023-03-19T06:45:14;10.20;99.90
34726;DHT22;20951;50.818;4.344;2023-03-19T06:47:44;10.20;99.90
34726;DHT22;20951;50.818;4.344;2023-03-19T06:50:12;10.20;99.90
34726;DHT22;20951;50.818;4.344;2023-03-19T06:52:41;10.20;99.90
34726;DHT22;20951;50.818;4.344;2023-03-19T06:55:08;10.40;99.90
34726;DHT22;20951;50.818;4.344;2023-03-19T06:57:36;10.40;99.90
34726;DHT22;20951;50.818;4.344;2023-03-19T07:00:03;10.40;99.90
34726;DHT22;20951;50.818;4.344;2023-03-19T07:02:29;10.40;99.90
34726;DHT22;20951;50.818;4.344;2023-03-19T07:04:55;10.50;99.90
34726;DHT22;20951;50.818;4.344;2023-03-19T07:07:22;10.40;99.90
34726;DHT22;20951;50.818;4.344;2023-03-19T07:09:48;10.40;99.90
34726;DHT22;20951;50.818;4.344;2023-03-19T07:12:17;10.50;99.90
34726;DHT22;20951;50.818;4.344;2023-03-19T07:14:42;10.60;99.90
34726;DHT22;20951;50.818;4.344;2023-03-19T07:17:08;10.60;99.90
34726;DHT22;20951;50.818;4.344;2023-03-19T07:19:36;10.70;99.90
34726;DHT22;20951;50.818;4.344;2023-03-19T07:22:02;10.80;99.90
34726;DHT22;20951;50.818;4.344;2023-03-19T07:24:28;10.90;99.90
34726;DHT22;20951;50.818;4.344;2023-03-19T07:26:56;10.80;99.90
34726;DHT22;20951;50.818;4.344;2023-03-19T07:29:29;11.00;99.90
34726;DHT22;20951;50.818;4.344;2023-03-19T07:31:58;11.10;99.90
34726;DHT22;20951;50.818;4.344;2023-03-19T07:34:24;11.00;99.90
34726;DHT22;20951;50.818;4.344;2023-03-19T07:36:49;11.00;99.90
34726;DHT22;20951;50.818;4.344;2023-03-19T07:39:16;10.90;99.90
34726;DHT22;20951;50.818;4.344;2023-03-19T07:41:42;11.10;99.90
34726;DHT22;20951;50.818;4.344;2023-03-19T07:44:13;11.00;99.90
34726;DHT22;20951;50.818;4.344;2023-03-19T07:46:41;11.10;99.90
34726;DHT22;20951;50.818;4.344;2023-03-19T07:49:09;11.10;99.90
34726;DHT22;20951;50.818;4.344;2023-03-19T07:51:35;11.10;99.90
34726;DHT22;20951;50.818;4.344;2023-03-19T07:54:04;11.10;99.90
34726;DHT22;20951;50.818;4.344;2023-03-19T07:56:29;11.30;99.90
34726;DHT22;20951;50.818;4.344;2023-03-19T07:58:55;11.40;99.90
34726;DHT22;20951;50.818;4.344;2023-03-19T08:01:21;11.50;99.90
34726;DHT22;20951;50.818;4.344;2023-03-19T08:03:47;11.50;99.90
34726;DHT22;20951;50.818;4.344;2023-03-19T08:06:13;11.50;99.90
34726;DHT22;20951;50.818;4.344;2023-03-19T08:08:41;11.50;99.90
34726;DHT22;20951;50.818;4.344;2023-03-19T08:11:07;11.60;99.90
34726;DHT22;20951;50.818;4.344;2023-03-19T08:13:33;11.70;99.90
34726;DHT22;20951;50.818;4.344;2023-03-19T08:15:59;11.70;99.90
34726;DHT22;20951;50.818;4.344;2023-03-19T08:18:25;11.80;99.90
34726;DHT22;20951;50.818;4.344;2023-03-19T08:20:51;11.90;99.90
34726;DHT22;20951;50.818;4.344;2023-03-19T08:23:18;12.10;99.90
34726;DHT22;20951;50.818;4.344;2023-03-19T08:25:45;12.20;99.90
34726;DHT22;20951;50.818;4.344;2023-03-19T08:28:11;12.30;99.90
34726;DHT22;20951;50.818;4.344;2023-03-19T08:30:37;12.30;99.90
34726;DHT22;20951;50.818;4.344;2023-03-19T08:33:04;12.40;99.90
34726;DHT22;20951;50.818;4.344;2023-03-19T08:35:30;12.50;99.90
34726;DHT22;20951;50.818;4.344;2023-03-19T08:37:56;12.50;99.90
34726;DHT22;20951;50.818;4.344;2023-03-19T08:40:22;12.90;99.90
34726;DHT22;20951;50.818;4.344;2023-03-19T08:42:48;14.00;99.90
34726;DHT22;20951;50.818;4.344;2023-03-19T08:45:15;15.10;99.90
34726;DHT22;20951;50.818;4.344;2023-03-19T08:47:42;16.00;99.90
34726;DHT22;20951;50.818;4.344;2023-03-19T08:50:09;17.30;99.90
34726;DHT22;20951;50.818;4.344;2023-03-19T08:52:35;18.70;99.90
34726;DHT22;20951;50.818;4.344;2023-03-19T08:55:03;20.30;99.90
34726;DHT22;20951;50.818;4.344;2023-03-19T08:57:30;20.50;99.90
34726;DHT22;20951;50.818;4.344;2023-03-19T08:59:56;20.90;99.90
34726;DHT22;20951;50.818;4.344;2023-03-19T09:02:22;21.40;99.90
34726;DHT22;20951;50.818;4.344;2023-03-19T09:04:50;21.20;99.90
34726;DHT22;20951;50.818;4.344;2023-03-19T09:07:16;19.90;99.90
34726;DHT22;20951;50.818;4.344;2023-03-19T09:09:42;18.90;99.90
34726;DHT22;20951;50.818;4.344;2023-03-19T09:12:10;18.70;99.90
34726;DHT22;20951;50.818;4.344;2023-03-19T09:14:36;18.10;99.90
34726;DHT22;20951;50.818;4.344;2023-03-19T09:17:02;17.80;99.90
34726;DHT22;20951;50.818;4.344;2023-03-19T09:19:28;17.40;99.90
34726;DHT22;20951;50.818;4.344;2023-03-19T09:21:54;16.90;99.90
34726;DHT22;20951;50.818;4.344;2023-03-19T09:24:32;16.50;99.90
34726;DHT22;20951;50.818;4.344;2023-03-19T09:26:57;16.00;99.90
34726;DHT22;20951;50.818;4.344;2023-03-19T09:29:23;15.90;99.90
34726;DHT22;20951;50.818;4.344;2023-03-19T09:31:49;15.30;99.90
34726;DHT22;20951;50.818;4.344;2023-03-19T09:34:15;14.90;99.90
34726;DHT22;20951;50.818;4.344;2023-03-19T09:36:40;14.60;99.90
34726;DHT22;20951;50.818;4.344;2023-03-19T09:39:06;14.90;99.90
34726;DHT22;20951;50.818;4.344;2023-03-19T09:41:55;14.90;99.90
34726;DHT22;20951;50.818;4.344;2023-03-19T09:44:28;14.60;99.90
34726;DHT22;20951;50.818;4.344;2023-03-19T09:47:24;14.50;99.90
34726;DHT22;20951;50.818;4.344;2023-03-19T09:49:54;14.40;99.90
34726;DHT22;20951;50.818;4.344;2023-03-19T09:52:44;14.70;99.90
34726;DHT22;20951;50.818;4.344;2023-03-19T09:55:36;15.10;99.90
34726;DHT22;20951;50.818;4.344;2023-03-19T09:58:18;14.80;99.90
34726;DHT22;20951;50.818;4.344;2023-03-19T10:00:56;14.80;99.90
34726;DHT22;20951;50.818;4.344;2023-03-19T10:03:41;14.70;99.90
34726;DHT22;20951;50.818;4.344;2023-03-19T10:06:33;14.50;99.90
34726;DHT22;20951;50.818;4.344;2023-03-19T10:12:30;15.00;99.90
34726;DHT22;20951;50.818;4.344;2023-03-19T10:15:32;15.10;99.90
34726;DHT22;20951;50.818;4.344;2023-03-19T10:20:43;14.30;99.90
34726;DHT22;20951;50.818;4.344;2023-03-19T10:23:40;14.60;99.90
34726;DHT22;20951;50.818;4.344;2023-03-19T10:26:13;14.70;99.90
34726;DHT22;20951;50.818;4.344;2023-03-19T10:28:42;14.70;99.90
34726;DHT22;20951;50.818;4.344;2023-03-19T10:31:29;14.70;99.90
34726;DHT22;20951;50.818;4.344;2023-03-19T10:36:44;14.60;99.90
34726;DHT22;20951;50.818;4.344;2023-03-19T10:39:11;14.90;99.90
34726;DHT22;20951;50.818;4.344;2023-03-19T10:44:44;14.40;99.90
34726;DHT22;20951;50.818;4.344;2023-03-19T10:47:15;14.20;99.90
34726;DHT22;20951;50.818;4.344;2023-03-19T10:49:44;14.00;99.90
34726;DHT22;20951;50.818;4.344;2023-03-19T10:52:34;14.20;99.90
34726;DHT22;20951;50.818;4.344;2023-03-19T10:57:41;14.30;99.90
34726;DHT22;20951;50.818;4.344;2023-03-19T11:00:34;14.60;99.90
34726;DHT22;20951;50.818;4.344;2023-03-19T11:03:02;14.60;99.90
34726;DHT22;20951;50.818;4.344;2023-03-19T11:05:32;14.40;99.90
34726;DHT22;20951;50.818;4.344;2023-03-19T11:08:05;14.20;99.90
34726;DHT22;20951;50.818;4.344;2023-03-19T11:10:34;13.80;99.90
34726;DHT22;20951;50.818;4.344;2023-03-19T11:13:23;13.50;99.90
34726;DHT22;20951;50.818;4.344;2023-03-19T11:15:50;13.40;99.90
34726;DHT22;20951;50.818;4.344;2023-03-19T11:18:35;13.20;99.90
34726;DHT22;20951;50.818;4.344;2023-03-19T11:21:07;12.90;99.90
34726;DHT22;20951;50.818;4.344;2023-03-19T11:23:39;12.90;99.90
34726;DHT22;20951;50.818;4.344;2023-03-19T11:26:06;13.10;99.90
34726;DHT22;20951;50.818;4.344;2023-03-19T11:28:36;13.20;99.90
34726;DHT22;20951;50.818;4.344;2023-03-19T11:31:29;13.00;99.90
34726;DHT22;20951;50.818;4.344;2023-03-19T11:43:03;13.30;99.90
34726;DHT22;20951;50.818;4.344;2023-03-19T11:53:40;13.40;99.90
34726;DHT22;20951;50.818;4.344;2023-03-19T12:12:52;13.30;99.90
34726;DHT22;20951;50.818;4.344;2023-03-19T12:18:56;13.60;99.90
34726;DHT22;20951;50.818;4.344;2023-03-19T12:24:52;14.10;99.90
34726;DHT22;20951;50.818;4.344;2023-03-19T12:27:58;14.20;99.90
34726;DHT22;20951;50.818;4.344;2023-03-19T12:30:44;14.30;99.90
34726;DHT22;20951;50.818;4.344;2023-03-19T12:35:55;14.40;99.90
34726;DHT22;20951;50.818;4.344;2023-03-19T12:41:23;14.60;99.90
34726;DHT22;20951;50.818;4.344;2023-03-19T12:49:30;15.70;99.90
34726;DHT22;20951;50.818;4.344;2023-03-19T12:57:58;17.00;99.90
34726;DHT22;20951;50.818;4.344;2023-03-19T13:00:57;16.40;99.90
34726;DHT22;20951;50.818;4.344;2023-03-19T13:03:58;16.10;99.90
34726;DHT22;20951;50.818;4.344;2023-03-19T13:07:04;15.40;99.90
34726;DHT22;20951;50.818;4.344;2023-03-19T13:09:39;14.90;99.90
34726;DHT22;20951;50.818;4.344;2023-03-19T13:12:26;14.60;99.90
34726;DHT22;20951;50.818;4.344;2023-03-19T13:15:07;14.50;99.90
34726;DHT22;20951;50.818;4.344;2023-03-19T13:20:55;14.10;99.90
34726;DHT22;20951;50.818;4.344;2023-03-19T13:23:30;14.00;99.90
34726;DHT22;20951;50.818;4.344;2023-03-19T13:26:02;14.10;99.90
34726;DHT22;20951;50.818;4.344;2023-03-19T13:31:25;14.40;99.90
34726;DHT22;20951;50.818;4.344;2023-03-19T13:34:03;15.80;99.90
34726;DHT22;20951;50.818;4.344;2023-03-19T13:36:37;16.80;99.90
34726;DHT22;20951;50.818;4.344;2023-03-19T13:39:24;17.40;99.90
34726;DHT22;20951;50.818;4.344;2023-03-19T13:45:03;18.60;99.90
34726;DHT22;20951;50.818;4.344;2023-03-19T13:51:21;19.90;99.90
34726;DHT22;20951;50.818;4.344;2023-03-19T13:59:40;19.20;99.90
34726;DHT22;20951;50.818;4.344;2023-03-19T14:07:34;16.30;99.90
34726;DHT22;20951;50.818;4.344;2023-03-19T14:10:19;15.60;99.90
34726;DHT22;20951;50.818;4.344;2023-03-19T14:15:49;14.50;99.90
34726;DHT22;20951;50.818;4.344;2023-03-19T14:18:20;14.30;99.90
34726;DHT22;20951;50.818;4.344;2023-03-19T14:21:03;14.00;99.90
34726;DHT22;20951;50.818;4.344;2023-03-19T14:23:30;13.80;99.90
34726;DHT22;20951;50.818;4.344;2023-03-19T14:26:09;13.60;99.90
34726;DHT22;20951;50.818;4.344;2023-03-19T14:31:48;13.50;99.90
34726;DHT22;20951;50.818;4.344;2023-03-19T14:34:33;13.40;99.90
34726;DHT22;20951;50.818;4.344;2023-03-19T14:37:02;13.40;99.90
34726;DHT22;20951;50.818;4.344;2023-03-19T14:39:37;13.40;99.90
34726;DHT22;20951;50.818;4.344;2023-03-19T14:42:20;13.30;99.90
34726;DHT22;20951;50.818;4.344;2023-03-19T14:50:38;13.40;99.90
34726;DHT22;20951;50.818;4.344;2023-03-19T14:55:46;13.50;99.90
34726;DHT22;20951;50.818;4.344;2023-03-19T14:58:17;13.50;99.90
34726;DHT22;20951;50.818;4.344;2023-03-19T15:00:49;13.50;99.90
34726;DHT22;20951;50.818;4.344;2023-03-19T15:06:11;13.20;99.90
34726;DHT22;20951;50.818;4.344;2023-03-19T15:08:42;13.20;99.90
34726;DHT22;20951;50.818;4.344;2023-03-19T15:11:34;13.10;99.90
34726;DHT22;20951;50.818;4.344;2023-03-19T15:17:25;12.80;99.90
34726;DHT22;20951;50.818;4.344;2023-03-19T15:19:59;12.70;99.90
34726;DHT22;20951;50.818;4.344;2023-03-19T15:22:33;12.60;99.90
34726;DHT22;20951;50.818;4.344;2023-03-19T15:25:11;12.60;99.90
34726;DHT22;20951;50.818;4.344;2023-03-19T15:27:37;12.50;99.90
34726;DHT22;20951;50.818;4.344;2023-03-19T15:30:18;12.40;99.90
34726;DHT22;20951;50.818;4.344;2023-03-19T15:32:44;12.40;99.90
34726;DHT22;20951;50.818;4.344;2023-03-19T15:35:10;12.30;99.90
34726;DHT22;20951;50.818;4.344;2023-03-19T15:37:39;12.30;99.90
34726;DHT22;20951;50.818;4.344;2023-03-19T15:40:13;12.20;99.90
34726;DHT22;20951;50.818;4.344;2023-03-19T15:42:44;12.20;99.90
34726;DHT22;20951;50.818;4.344;2023-03-19T15:45:20;12.10;99.90
34726;DHT22;20951;50.818;4.344;2023-03-19T15:47:56;12.00;99.90
34726;DHT22;20951;50.818;4.344;2023-03-19T15:50:28;12.00;99.90
34726;DHT22;20951;50.818;4.344;2023-03-19T15:53:10;11.80;99.90
34726;DHT22;20951;50.818;4.344;2023-03-19T15:55:42;11.90;99.90
34726;DHT22;20951;50.818;4.344;2023-03-19T15:58:14;11.80;99.90
34726;DHT22;20951;50.818;4.344;2023-03-19T16:00:44;11.70;99.90
34726;DHT22;20951;50.818;4.344;2023-03-19T16:03:17;11.50;99.90
34726;DHT22;20951;50.818;4.344;2023-03-19T16:05:44;11.40;99.90
34726;DHT22;20951;50.818;4.344;2023-03-19T16:08:24;11.30;99.90
34726;DHT22;20951;50.818;4.344;2023-03-19T16:10:50;11.30;99.90
34726;DHT22;20951;50.818;4.344;2023-03-19T16:13:30;11.40;99.90
34726;DHT22;20951;50.818;4.344;2023-03-19T16:16:17;11.30;99.90
34726;DHT22;20951;50.818;4.344;2023-03-19T16:18:48;11.20;99.90
34726;DHT22;20951;50.818;4.344;2023-03-19T16:21:21;11.10;99.90
34726;DHT22;20951;50.818;4.344;2023-03-19T16:23:59;11.10;99.90
34726;DHT22;20951;50.818;4.344;2023-03-19T16:26:36;11.10;99.90
34726;DHT22;20951;50.818;4.344;2023-03-19T16:29:24;11.10;99.90
34726;DHT22;20951;50.818;4.344;2023-03-19T16:34:44;11.20;99.90
34726;DHT22;20951;50.818;4.344;2023-03-19T16:42:42;10.90;99.90
34726;DHT22;20951;50.818;4.344;2023-03-19T16:47:45;10.90;99.90
34726;DHT22;20951;50.818;4.344;2023-03-19T16:50:11;10.80;99.90
34726;DHT22;20951;50.818;4.344;2023-03-19T16:52:39;10.70;99.90
34726;DHT22;20951;50.818;4.344;2023-03-19T16:55:26;10.60;99.90
34726;DHT22;20951;50.818;4.344;2023-03-19T16:58:01;10.60;99.90
34726;DHT22;20951;50.818;4.344;2023-03-19T17:00:29;10.70;99.90
34726;DHT22;20951;50.818;4.344;2023-03-19T17:02:56;10.60;99.90
34726;DHT22;20951;50.818;4.344;2023-03-19T17:05:23;10.60;99.90
34726;DHT22;20951;50.818;4.344;2023-03-19T17:07:50;10.60;99.90
34726;DHT22;20951;50.818;4.344;2023-03-19T17:10:21;10.50;99.90
34726;DHT22;20951;50.818;4.344;2023-03-19T17:12:56;10.60;99.90
34726;DHT22;20951;50.818;4.344;2023-03-19T17:15:45;10.70;99.90
34726;DHT22;20951;50.818;4.344;2023-03-19T17:18:17;10.60;99.90
34726;DHT22;20951;50.818;4.344;2023-03-19T17:20:52;10.70;99.90
34726;DHT22;20951;50.818;4.344;2023-03-19T17:23:18;10.80;99.90
34726;DHT22;20951;50.818;4.344;2023-03-19T17:25:49;10.80;99.90
34726;DHT22;20951;50.818;4.344;2023-03-19T17:28:17;10.50;99.90
34726;DHT22;20951;50.818;4.344;2023-03-19T17:30:43;10.50;99.90
34726;DHT22;20951;50.818;4.344;2023-03-19T17:33:23;10.50;99.90
34726;DHT22;20951;50.818;4.344;2023-03-19T17:35:51;10.40;99.90
34726;DHT22;20951;50.818;4.344;2023-03-19T17:38:18;10.60;99.90
34726;DHT22;20951;50.818;4.344;2023-03-19T17:40:44;10.60;99.90
34726;DHT22;20951;50.818;4.344;2023-03-19T17:43:12;10.50;99.90
34726;DHT22;20951;50.818;4.344;2023-03-19T17:45:41;10.50;99.90
34726;DHT22;20951;50.818;4.344;2023-03-19T17:48:20;10.40;99.90
34726;DHT22;20951;50.818;4.344;2023-03-19T17:50:50;10.40;99.90
34726;DHT22;20951;50.818;4.344;2023-03-19T17:53:20;10.30;99.90
34726;DHT22;20951;50.818;4.344;2023-03-19T17:55:53;10.30;99.90
34726;DHT22;20951;50.818;4.344;2023-03-19T17:58:20;10.30;99.90
34726;DHT22;20951;50.818;4.344;2023-03-19T18:00:59;10.30;99.90